createdAt,value
2023-07-03T04:43:58.503Z,1.80
2023-07-03T04:46:28.081Z,1.60
2023-07-03T04:49:01.638Z,1.40
2023-07-03T04:51:32.715Z,2.20
2023-07-03T04:54:01.042Z,1.60
2023-07-03T04:56:29.010Z,1.70
2023-07-03T04:58:56.525Z,1.50
2023-07-03T05:01:26.480Z,1.70
2023-07-03T05:03:53.972Z,1.80
2023-07-03T05:06:21.412Z,1.50
2023-07-03T05:08:49.055Z,1.60
2023-07-03T05:11:16.558Z,2.00
2023-07-03T05:13:48.847Z,1.70
2023-07-03T05:16:16.327Z,1.50
2023-07-03T05:18:43.969Z,1.60
2023-07-03T05:21:12.221Z,1.70
2023-07-03T05:23:39.659Z,1.70
2023-07-03T05:26:07.210Z,1.70
2023-07-03T05:28:37.848Z,1.70
2023-07-03T05:31:07.795Z,1.70
2023-07-03T05:33:35.279Z,2.10
2023-07-03T05:36:03.163Z,1.90
2023-07-03T05:38:31.230Z,1.70
2023-07-03T05:40:58.694Z,1.70
2023-07-03T05:43:28.141Z,1.80
2023-07-03T05:45:55.752Z,1.50
2023-07-03T05:48:24.868Z,1.60
2023-07-03T05:50:52.425Z,1.60
2023-07-03T05:53:21.388Z,1.60
2023-07-03T05:55:57.283Z,2.10
2023-07-03T05:58:29.281Z,1.60
2023-07-03T06:00:57.145Z,2.10
2023-07-03T06:03:30.224Z,2.10
2023-07-03T06:05:58.103Z,1.60
2023-07-03T06:08:25.572Z,1.60
2023-07-03T06:10:53.992Z,1.60
2023-07-03T06:13:21.412Z,1.60
2023-07-03T06:15:49.362Z,1.80
2023-07-03T06:18:17.156Z,2.10
2023-07-03T06:20:44.609Z,1.60
2023-07-03T06:23:12.132Z,1.80
2023-07-03T06:25:41.867Z,1.90
2023-07-03T06:28:09.273Z,1.80
2023-07-03T06:30:36.692Z,1.80
2023-07-03T06:33:04.170Z,2.20
2023-07-03T06:35:34.953Z,1.70
2023-07-03T06:38:04.438Z,2.20
2023-07-03T06:40:31.940Z,2.60
2023-07-03T06:42:59.582Z,2.40
2023-07-03T06:45:29.435Z,1.90
2023-07-03T06:47:57.233Z,2.00
2023-07-03T06:50:30.565Z,2.80
2023-07-03T06:52:57.988Z,1.80
2023-07-03T06:55:25.467Z,3.70
2023-07-03T06:57:53.152Z,2.20
2023-07-03T07:00:20.916Z,1.70
2023-07-03T07:02:48.454Z,1.80
2023-07-03T07:05:16.103Z,1.40
2023-07-03T07:07:46.429Z,1.90
2023-07-03T07:10:13.866Z,1.80
2023-07-03T07:12:41.309Z,1.90
2023-07-03T07:15:09.086Z,1.90
2023-07-03T07:17:51.162Z,1.50
2023-07-03T07:20:19.895Z,1.90
2023-07-03T07:22:48.974Z,1.80
2023-07-03T07:25:16.687Z,1.80
2023-07-03T07:27:44.323Z,1.90
2023-07-03T07:30:12.491Z,1.90
2023-07-03T07:32:39.951Z,1.70
2023-07-03T07:35:09.627Z,2.30
2023-07-03T07:37:38.327Z,1.80
2023-07-03T07:40:07.005Z,1.70
2023-07-03T07:42:34.503Z,1.30
2023-07-03T07:45:01.966Z,1.40
2023-07-03T07:47:30.205Z,1.80
2023-07-03T07:49:59.492Z,2.00
2023-07-03T07:52:27.537Z,2.40
2023-07-03T07:54:56.365Z,2.50
2023-07-03T07:57:24.843Z,3.00
2023-07-03T07:59:52.241Z,3.00
2023-07-03T08:02:19.862Z,3.40
2023-07-03T08:04:47.606Z,2.40
2023-07-03T08:07:15.346Z,2.90
2023-07-03T08:09:42.784Z,2.50
2023-07-03T08:12:10.499Z,1.90
2023-07-03T08:14:37.881Z,3.40
2023-07-03T08:17:05.482Z,1.70
2023-07-03T08:19:32.915Z,1.50
2023-07-03T08:22:00.510Z,1.70
2023-07-03T08:24:28.022Z,2.00
2023-07-03T08:26:55.639Z,2.10
2023-07-03T08:29:23.041Z,2.50
2023-07-03T08:31:50.621Z,3.30
2023-07-03T08:34:18.598Z,2.40
2023-07-03T08:39:21.624Z,2.60
2023-07-03T08:41:57.361Z,2.10
2023-07-03T08:44:24.825Z,2.20
2023-07-03T08:47:06.071Z,1.20
2023-07-03T08:49:38.556Z,1.30
2023-07-03T08:52:06.261Z,0.80
2023-07-03T08:54:35.688Z,1.20
2023-07-03T08:57:04.712Z,0.80
2023-07-03T08:59:32.086Z,1.00
2023-07-03T09:02:11.135Z,0.70
2023-07-03T09:04:41.278Z,0.80
2023-07-03T09:07:30.250Z,0.80
2023-07-03T09:10:12.951Z,0.90
2023-07-03T09:12:43.486Z,0.90
2023-07-03T09:15:25.350Z,0.80
2023-07-03T09:17:54.309Z,1.10
2023-07-03T09:20:22.258Z,1.00
2023-07-03T09:23:07.363Z,1.40
2023-07-03T09:25:42.154Z,1.70
2023-07-03T09:28:13.753Z,1.40
2023-07-03T09:30:41.310Z,1.20
2023-07-03T09:33:08.966Z,1.20
2023-07-03T09:35:37.991Z,1.30
2023-07-03T09:38:06.914Z,1.20
2023-07-03T09:40:36.660Z,1.50
2023-07-03T09:43:04.825Z,1.10
2023-07-03T09:45:36.739Z,1.00
2023-07-03T09:48:13.658Z,1.40
2023-07-03T09:50:47.889Z,1.10
2023-07-03T10:00:52.398Z,1.00
2023-07-03T10:03:33.702Z,0.90
2023-07-03T10:08:46.923Z,1.00
2023-07-03T10:11:14.437Z,1.00
2023-07-03T10:13:45.681Z,1.00
2023-07-03T10:16:15.331Z,1.10
2023-07-03T10:18:49.823Z,1.30
2023-07-03T10:21:18.829Z,1.30
2023-07-03T10:23:46.319Z,1.20
2023-07-03T10:26:26.356Z,1.60
2023-07-03T10:29:15.053Z,1.00
2023-07-03T10:32:05.795Z,1.00
2023-07-03T10:34:45.887Z,0.90
2023-07-03T10:37:13.820Z,1.10
2023-07-03T10:39:43.037Z,1.20
2023-07-03T10:42:19.343Z,1.00
2023-07-03T10:44:46.794Z,0.80
2023-07-03T10:47:18.901Z,0.80
2023-07-03T10:49:46.902Z,0.90
2023-07-03T10:52:37.636Z,0.70
2023-07-03T10:55:25.419Z,0.80
2023-07-03T10:58:04.328Z,1.00
2023-07-03T11:00:36.042Z,1.10
2023-07-03T11:03:18.856Z,0.60
2023-07-03T11:06:02.746Z,1.60
2023-07-03T11:08:54.017Z,0.80
2023-07-03T11:11:27.039Z,0.90
2023-07-03T11:14:24.000Z,0.60
2023-07-03T11:17:06.830Z,1.00
2023-07-03T11:19:54.637Z,1.00
2023-07-03T11:25:12.645Z,0.90
2023-07-03T11:40:40.795Z,0.80
2023-07-03T11:43:30.203Z,0.60
2023-07-03T11:45:57.641Z,0.80
2023-07-03T11:48:31.365Z,1.00
2023-07-03T11:51:06.733Z,0.80
2023-07-03T11:53:38.181Z,0.60
2023-07-03T11:56:07.195Z,0.60
2023-07-03T11:58:35.094Z,0.90
2023-07-03T12:01:21.591Z,0.70
2023-07-03T12:04:03.706Z,0.60
2023-07-03T12:06:40.684Z,0.80
2023-07-03T12:09:20.573Z,1.10
2023-07-03T12:12:08.698Z,0.50
2023-07-03T12:14:43.011Z,1.40
2023-07-03T12:17:32.824Z,0.80
2023-07-03T12:20:07.779Z,0.80
2023-07-03T12:22:44.432Z,1.00
2023-07-03T12:25:18.471Z,1.00
2023-07-03T12:27:49.292Z,1.00
2023-07-03T12:30:26.036Z,1.10
2023-07-03T12:32:54.330Z,1.10
2023-07-03T12:35:26.545Z,1.30
2023-07-03T12:37:59.743Z,1.40
2023-07-03T12:40:27.426Z,0.90
2023-07-03T12:42:56.864Z,1.40
2023-07-03T12:45:29.816Z,1.50
2023-07-03T12:48:04.747Z,1.10
2023-07-03T12:50:35.367Z,0.90
2023-07-03T12:53:05.530Z,0.90
2023-07-03T12:55:34.983Z,1.00
2023-07-03T12:58:03.201Z,1.10
2023-07-03T13:00:32.028Z,1.20
2023-07-03T13:03:05.063Z,1.20
2023-07-03T13:08:07.602Z,1.20
2023-07-03T13:10:35.051Z,1.00
2023-07-03T13:13:18.093Z,1.10
2023-07-03T13:15:45.978Z,1.00
2023-07-03T13:18:13.551Z,1.20
2023-07-03T13:21:10.511Z,0.90
2023-07-03T13:23:41.410Z,1.00
2023-07-03T13:26:14.072Z,1.10
2023-07-03T13:28:52.492Z,1.10
2023-07-03T13:31:21.881Z,1.10
2023-07-03T13:34:16.861Z,1.10
2023-07-03T13:37:10.513Z,1.10
2023-07-03T13:39:38.475Z,1.00
2023-07-03T13:42:06.294Z,1.10
2023-07-03T13:44:34.675Z,1.30
2023-07-03T13:47:02.125Z,1.00
2023-07-03T13:49:30.111Z,1.30
2023-07-03T13:51:58.612Z,0.90
2023-07-03T13:54:26.514Z,1.10
2023-07-03T13:56:54.074Z,1.00
2023-07-03T13:59:21.532Z,0.90
2023-07-03T14:01:49.060Z,1.10
2023-07-03T14:04:16.546Z,1.00
2023-07-03T14:06:44.050Z,1.10
2023-07-03T14:09:11.494Z,0.90
2023-07-03T14:11:38.896Z,0.80
2023-07-03T14:14:06.516Z,0.90
2023-07-03T14:16:33.922Z,1.20
2023-07-03T14:19:04.291Z,0.90
2023-07-03T14:21:33.436Z,0.90
2023-07-03T14:24:00.809Z,1.00
2023-07-03T14:26:28.330Z,1.10
2023-07-03T14:28:56.123Z,0.90
2023-07-03T14:31:23.544Z,0.90
2023-07-03T14:33:51.004Z,1.20
2023-07-03T14:36:18.465Z,1.30
2023-07-03T14:38:46.166Z,1.20
2023-07-03T14:41:14.439Z,1.30
2023-07-03T14:43:41.782Z,1.00
2023-07-03T14:46:09.286Z,1.30
2023-07-03T14:48:36.665Z,1.20
2023-07-03T14:51:04.311Z,1.50
2023-07-03T14:53:31.713Z,1.40
2023-07-03T14:56:01.943Z,1.20
2023-07-03T14:58:31.594Z,1.40
2023-07-03T15:01:02.774Z,1.50
2023-07-03T15:03:30.915Z,1.40
2023-07-03T15:05:58.782Z,1.50
2023-07-03T15:08:27.326Z,1.50
2023-07-03T15:10:54.854Z,1.50
2023-07-03T15:13:22.319Z,1.50
2023-07-03T15:15:50.714Z,1.70
2023-07-03T15:18:18.591Z,1.70
2023-07-03T15:20:47.426Z,1.40
2023-07-03T15:23:16.519Z,2.20
2023-07-03T15:25:44.108Z,1.50
2023-07-03T15:28:11.524Z,1.70
2023-07-03T15:30:40.593Z,1.60
2023-07-03T15:33:08.190Z,1.80
2023-07-03T15:35:35.857Z,1.10
2023-07-03T15:38:03.321Z,1.20
2023-07-03T15:40:30.745Z,1.80
2023-07-03T15:42:58.175Z,3.90
2023-07-03T15:45:26.554Z,2.10
2023-07-03T15:47:54.067Z,1.90
2023-07-03T15:50:21.572Z,1.20
2023-07-03T15:52:49.022Z,1.60
2023-07-03T15:55:17.865Z,1.60
2023-07-03T15:57:45.291Z,1.70
2023-07-03T16:00:13.573Z,1.50
2023-07-03T16:02:41.064Z,1.50
2023-07-03T16:05:08.585Z,1.60
2023-07-03T16:07:36.095Z,1.40
2023-07-03T16:10:03.674Z,1.40
2023-07-03T16:12:31.099Z,1.50
2023-07-03T16:14:58.701Z,1.60
2023-07-03T16:17:26.281Z,1.80
2023-07-03T16:20:04.976Z,1.70
2023-07-03T16:22:32.413Z,1.60
2023-07-03T16:25:00.092Z,1.60
2023-07-03T16:27:27.689Z,2.50
2023-07-03T16:29:55.143Z,2.60
2023-07-03T16:32:22.624Z,1.80
2023-07-03T16:34:50.221Z,1.70
2023-07-03T16:37:17.766Z,1.30
2023-07-03T16:39:45.409Z,2.00
2023-07-03T16:42:12.807Z,1.40
2023-07-03T16:44:40.271Z,1.60
2023-07-03T16:47:07.820Z,1.60
2023-07-03T16:49:35.402Z,1.80
2023-07-03T16:52:03.530Z,1.60
2023-07-03T16:54:30.908Z,2.00
2023-07-03T16:56:58.402Z,2.00
2023-07-03T17:01:32.526Z,1.80
2023-07-03T17:04:01.189Z,1.90
2023-07-03T17:06:32.305Z,2.10
2023-07-03T17:09:00.796Z,1.60
2023-07-03T17:11:28.463Z,2.00
2023-07-03T17:14:01.059Z,2.30
2023-07-03T17:16:30.257Z,2.10
2023-07-03T17:18:57.754Z,1.90
2023-07-03T17:21:25.198Z,1.70
2023-07-03T17:24:00.647Z,1.90
2023-07-03T17:26:28.622Z,2.00
2023-07-03T17:28:56.521Z,3.20
2023-07-03T17:31:27.549Z,2.40
2023-07-03T17:33:55.325Z,2.60
2023-07-03T17:36:24.261Z,2.60
2023-07-03T17:38:52.211Z,2.60
2023-07-03T17:41:20.513Z,3.50
2023-07-03T17:43:48.424Z,3.20
2023-07-03T17:46:17.162Z,3.20
2023-07-03T17:48:45.064Z,3.00
2023-07-03T17:51:12.721Z,3.60
2023-07-03T17:53:41.724Z,3.10
2023-07-03T17:56:09.181Z,3.30
2023-07-03T17:58:36.636Z,2.40
2023-07-03T18:01:04.683Z,3.00
2023-07-03T18:03:33.894Z,3.10
2023-07-03T18:06:01.898Z,3.80
2023-07-03T18:08:29.634Z,3.90
2023-07-03T18:10:57.014Z,3.90
2023-07-03T18:13:24.483Z,3.40
2023-07-03T18:15:51.957Z,2.80
2023-07-03T18:18:22.934Z,2.50
2023-07-03T18:20:50.394Z,2.30
2023-07-03T18:23:18.146Z,1.80
2023-07-03T18:25:48.207Z,2.10
2023-07-03T18:28:15.710Z,2.70
2023-07-03T18:30:43.175Z,3.20
2023-07-03T18:33:10.586Z,3.40
2023-07-03T18:35:38.127Z,4.20
2023-07-03T18:38:05.790Z,3.40
2023-07-03T18:40:33.349Z,3.30
2023-07-03T18:43:00.775Z,2.90
2023-07-03T18:45:31.108Z,2.90
2023-07-03T18:47:58.545Z,3.60
2023-07-03T18:50:26.491Z,3.00
2023-07-03T18:52:53.930Z,2.80
2023-07-03T18:55:22.624Z,2.80
2023-07-03T18:57:50.508Z,2.80
2023-07-03T19:00:18.060Z,2.70
2023-07-03T19:02:46.619Z,2.40
2023-07-03T19:05:14.522Z,2.60
2023-07-03T19:07:42.167Z,2.90
2023-07-03T19:12:41.358Z,3.00
2023-07-03T19:15:09.476Z,2.60
2023-07-03T19:17:36.911Z,3.20
2023-07-03T19:20:04.587Z,3.20
2023-07-03T19:22:32.505Z,3.90
2023-07-03T19:25:00.787Z,4.90
2023-07-03T19:27:28.174Z,5.90
2023-07-03T19:29:55.519Z,9.20
2023-07-03T19:32:25.281Z,15.40
2023-07-03T19:34:55.700Z,15.90
2023-07-03T19:37:23.255Z,13.70
2023-07-03T19:39:51.130Z,14.60
2023-07-03T19:42:18.601Z,12.20
2023-07-03T19:44:47.118Z,10.90
2023-07-03T19:47:14.649Z,11.90
2023-07-03T19:49:42.286Z,10.00
2023-07-03T19:52:11.989Z,10.50
2023-07-03T19:54:39.384Z,11.40
2023-07-03T19:57:06.947Z,13.20
2023-07-03T19:59:34.367Z,12.40
2023-07-03T20:02:02.325Z,13.00
2023-07-03T20:04:30.998Z,14.20
2023-07-03T20:07:00.055Z,14.50
2023-07-03T20:09:27.522Z,15.20
2023-07-03T20:11:55.014Z,16.20
2023-07-03T20:14:22.822Z,15.30
2023-07-03T20:16:50.261Z,13.00
2023-07-03T20:19:26.408Z,14.50
2023-07-03T20:21:53.829Z,11.60
2023-07-03T20:24:21.793Z,12.70
2023-07-03T20:26:49.233Z,11.10
2023-07-03T20:29:16.623Z,12.80
2023-07-03T20:31:44.147Z,11.40
2023-07-03T20:34:11.562Z,11.90
2023-07-03T20:36:39.339Z,11.10
2023-07-03T20:39:06.824Z,10.70
2023-07-03T20:41:34.301Z,10.00
2023-07-03T20:44:05.826Z,9.80
2023-07-03T20:46:33.362Z,10.00
2023-07-03T20:49:01.058Z,11.20
2023-07-03T20:51:34.354Z,10.80
2023-07-03T20:54:04.817Z,11.40
2023-07-03T20:56:37.312Z,10.70
2023-07-03T20:59:04.912Z,11.00
2023-07-03T21:01:34.307Z,10.80
2023-07-03T21:04:04.313Z,11.40
2023-07-03T21:06:35.776Z,13.30
2023-07-03T21:09:04.168Z,11.40
2023-07-03T21:11:32.842Z,10.30
2023-07-03T21:14:03.876Z,11.50
2023-07-03T21:16:36.644Z,10.50
2023-07-03T21:19:04.769Z,9.70
2023-07-03T21:21:32.936Z,10.40
2023-07-03T21:24:03.002Z,11.10
2023-07-03T21:26:31.228Z,10.30
2023-07-03T21:28:59.113Z,9.90
2023-07-03T21:31:28.519Z,10.70
2023-07-03T21:33:58.345Z,10.70
2023-07-03T21:36:27.525Z,10.80
2023-07-03T21:38:58.789Z,11.40
2023-07-03T21:41:32.294Z,10.00
2023-07-03T21:44:02.220Z,10.10
2023-07-03T21:46:32.269Z,10.10
2023-07-03T21:48:59.914Z,10.70
2023-07-03T21:51:28.384Z,10.80
2023-07-03T21:53:55.852Z,10.50
2023-07-03T21:56:28.299Z,9.50
2023-07-03T21:58:57.861Z,9.60
2023-07-03T22:01:34.657Z,8.60
2023-07-03T22:04:03.005Z,9.00
2023-07-03T22:06:30.457Z,8.80
2023-07-03T22:08:58.417Z,9.00
2023-07-03T22:11:26.626Z,9.10
2023-07-03T22:13:55.359Z,9.40
2023-07-03T22:16:22.893Z,8.90
2023-07-03T22:18:50.527Z,9.00
2023-07-03T22:21:18.920Z,9.50
2023-07-03T22:23:50.592Z,8.80
2023-07-03T22:26:18.179Z,8.50
2023-07-03T22:28:46.176Z,8.40
2023-07-03T22:31:13.770Z,8.10
2023-07-03T22:33:42.029Z,8.30
2023-07-03T22:36:10.390Z,8.80
2023-07-03T22:38:38.128Z,8.00
2023-07-03T22:41:05.536Z,8.40
2023-07-03T22:43:33.072Z,7.80
2023-07-03T22:46:05.291Z,8.00
2023-07-03T22:48:33.620Z,8.40
2023-07-03T22:51:03.866Z,7.90
2023-07-03T22:53:31.372Z,8.60
2023-07-03T22:55:58.888Z,8.10
2023-07-03T22:58:26.265Z,7.50
2023-07-03T23:00:59.530Z,7.40
2023-07-03T23:03:27.000Z,7.30
2023-07-03T23:06:00.368Z,7.20
2023-07-03T23:08:33.821Z,7.10
2023-07-03T23:11:10.293Z,7.20
2023-07-03T23:13:37.826Z,6.40
2023-07-03T23:16:10.543Z,6.50
2023-07-03T23:18:40.050Z,6.70
2023-07-03T23:21:12.740Z,6.60
2023-07-03T23:23:40.888Z,7.10
2023-07-03T23:26:12.330Z,6.90
2023-07-03T23:28:40.937Z,6.10
2023-07-03T23:31:15.348Z,6.50
2023-07-03T23:33:51.707Z,6.50
2023-07-03T23:36:24.003Z,6.90
2023-07-03T23:38:58.794Z,5.80
2023-07-03T23:41:26.193Z,6.20
2023-07-03T23:43:56.170Z,5.60
2023-07-03T23:46:27.208Z,6.00
2023-07-03T23:48:54.661Z,5.90
2023-07-03T23:51:22.106Z,5.70
2023-07-03T23:53:51.066Z,5.60
2023-07-03T23:56:19.410Z,4.60
2023-07-03T23:58:48.012Z,5.20
